Tiempo atmosférico en la estación meteorológica de Estaca De Bares, A Coruña (80 m.)



Fecha
DESCASC
Temp. máxima en grados centígrados (hora)
DESCASC
Temp. mínima en grados centígrados (hora)
DESCASC
Temp. media en grados centígrados
DESCASC
Racha de viento máxima en m/sg (hora)
DESCASC
Velocidad máxima media en intervalos de 10 minutos(hora)
DESCASC
Precipitaciones diarias en mm
DESCASC
Precipitaciones de 00:00 a 06:00 en mm
DESCASC
Precipitaciones de 06:00 a 12:00 en mm
DESCASC
Precipitaciones de 12:00 a 18:00 en mm
DESCASC
Precipitaciones de 18:00 a 24:00 en mm
DESCASC
15-08-2019 22.7 (14:10) 17 (04:30) 19.9 9.72 (19:30) 7.5 (00:40) 0 0 0 0 0
14-08-2019 23.6 (13:50) 16.3 (00:00) 19.9 16.11 (12:40) 13.33 (13:30) 0.4 0 0 0 0.4
13-08-2019 21.7 (13:50) 14.6 (00:00) 18.2 10 (15:50) 7.22 (15:40) 0 0 0 0 0
12-08-2019 21.3 (18:40) 15.1 (00:00) 18.2 16.39 (01:00) 12.22 (01:00) 1.8 1.8 0 0 0
11-08-2019 21.8 (15:30) 15.1 (00:00) 18.4 20.56 (15:40) 13.61 (16:00) 7.2 0 0 4.8 2.4
10-08-2019 23.6 (12:30) 17.2 (00:00) 20.4 15.56 (01:40) 13.33 (14:20) 0 0 0 0 0
09-08-2019 24 (13:00) 18.6 (00:00) 21.3 29.44 (16:10) 21.94 (16:10) 0 0 0 0 0
08-08-2019 30.6 (14:40) 19.8 (00:00) 25.2 22.5 (18:20) 14.17 (18:10) 4.8 0.2 0 0.2 4.4
07-08-2019 22.2 (22:20) 18 (00:00) 20.1 8.61 (22:20) 6.39 (17:20) 0.4 0 0 0.4 0
06-08-2019 23.6 (14:00) 18.6 (00:00) 21.1 15.56 (16:30) 13.06 (16:40) 0.4 0 0 0 0.4
05-08-2019 26.2 (15:50) 16.4 (00:00) 21.3 12.78 (18:10) 10.28 (18:00) 0 0 0 0 0
04-08-2019 24.2 (18:00) 17.5 (00:00) 20.9 6.67 (10:40) 5.28 (17:40) 0 0 0 0 0
03-08-2019 23.9 (13:50) 17.4 (00:00) 20.6 9.44 (00:30) 7.5 (00:10) 0 0 0 0 0
02-08-2019 22.6 (14:20) 18.2 (00:00) 20.4 12.78 (01:00) 9.44 (00:30) 0 0 0 0 0
01-08-2019 21.2 (17:00) 17.8 (00:00) 19.5 16.11 (04:00) 12.22 (04:00) 0 0 0 0 0
31-07-2019 22 (14:30) 14.9 (00:00) 18.4 14.17 (23:20) 10.56 (23:50) 0 0 0 0 0
30-07-2019 21.5 (13:40) 15.6 (00:00) 18.6 19.17 (01:30) 15.83 (01:10) 0 0 0 0 0
29-07-2019 20.8 (13:10) 16.2 (00:00) 18.5 24.72 (15:10) 20.28 (15:10) 0.4 0 0 0 0.4
28-07-2019 22.2 (15:30) 15.4 (00:00) 18.8 10.28 (17:10) 7.22 (17:10) 0 0 0 0 0
27-07-2019 22.4 (17:10) 14.9 (00:00) 18.6 6.11 (05:10) 5 (05:10) 5 0.2 4.8 0 0
26-07-2019 21.4 (11:20) 16.8 (00:00) 19.1 13.61 (17:20) 11.39 (17:20) 0.4 0.2 0 0 0.2
25-07-2019 23.7 (10:30) 17.7 (00:00) 20.7 17.78 (15:20) 13.61 (12:20) 0 0 0 0 0
24-07-2019 23.8 (19:20) 16.2 (00:00) 20 7.78 (23:10) 6.39 (23:20) 0 0 0 0 0
23-07-2019 22.2 (14:20) 17 (00:00) 19.6 20.28 (16:20) 17.22 (17:00) 0 0 0 0 0
22-07-2019 22.1 (14:40) 19.3 (00:00) 20.7 16.11 (11:00) 11.67 (07:10) 0 0 0 0 0
21-07-2019 21.9 (15:30) 16.4 (00:00) 19.1 10.83 (23:50) 8.33 (23:40) 0 0 0 0 0
20-07-2019 23 (12:30) 16.7 (00:00) 19.9 14.72 (17:30) 11.67 (17:30) 0 0 0 0 0
19-07-2019 24.4 (18:10) 17.3 (00:00) 20.8 8.33 (23:59) 6.11 (23:59) 0 0 0 0 0

Gráficas

Temp. máximas Temp. mínimas Temp. medias Precipitaciones Rachas de viento máximas Velocidades máximas media en intervalos de 10 minutos

Datos horarios

Fecha y hora oficial Temperatura (ºC) Velocidad del viento (km/h) Dirección del viento Racha (km/h) Dirección de racha Precipitación (mm) Presión (hPa) Tendencia (hPa) Humedad (%)
2019-08-17 23:00:00 21.5 54 Oeste 68 Sudoeste 0 1000.3 -0.2 71
2019-08-17 22:00:00 21.7 47 Oeste 68 Sudoeste 0 999.9 -1.2 72
2019-08-17 21:00:00 22.9 44 Oeste 59 Oeste 0 1000.3 -1 70
2019-08-17 20:00:00 23.3 48 Oeste 62 Oeste 0 1000.5 -0.7 72
2019-08-17 19:00:00 22.5 49 Oeste 57 Oeste 0 1001.1 -0.8 75
2019-08-17 18:00:00 24.2 47 Oeste 66 Oeste 0 1001.3 -1.1 67
2019-08-17 17:00:00 25.1 55 Oeste 67 Oeste 0 1001.2 -1.8 62
2019-08-17 16:00:00 25.7 42 Oeste 56 Oeste 0 1001.9 -1.5 62
2019-08-17 15:00:00 25.1 40 Oeste 53 Oeste 0 1002.4 -1.1 64
2019-08-17 14:00:00 26.1 40 Oeste 57 Oeste 0 1003 -0.5 60
2019-08-17 13:00:00 24.6 40 Oeste 56 Oeste 0 1003.4 -0.1 65
2019-08-17 12:00:00 23.4 44 Oeste 56 Oeste 0 1003.5 0.2 69
2019-08-17 11:00:00 22.3 48 Oeste 57 Oeste 0 1003.5 0.2 74
2019-08-17 10:00:00 21.7 44 Oeste 61 Oeste 0 1003.5 0.6 76
2019-08-17 09:00:00 20.8 53 Oeste 62 Oeste 0 1003.3 0.2 77
2019-08-17 08:00:00 20.8 46 Oeste 59 Oeste 0 1003.3 0.1 74
2019-08-17 07:00:00 20.7 51 Oeste 75 Oeste 0 1002.9 -0.8 73
2019-08-17 06:00:00 20.2 48 Oeste 74 Sudoeste 0 1003.1 -1.6 75
2019-08-17 05:00:00 20.1 50 Oeste 67 Sudoeste 0 1003.2 -1.6 75
2019-08-17 04:00:00 20 52 Oeste 67 Oeste 0 1003.7 -1.4 73
2019-08-17 03:00:00 19.7 46 Oeste 62 Oeste 0 1004.7 -1 76
2019-08-17 02:00:00 19.5 46 Oeste 57 Oeste 0 1004.8 -1.5 78
2019-08-17 01:00:00 19.7 44 Oeste 56 Oeste 0 1005.1 -0.9 78
2019-08-17 00:00:00 19.7 37 Oeste 49 Oeste 0 1005.7 0.2 78
2019-08-16 23:00:00 20 31 Oeste 42 Oeste 0 1006.3 0.6 77
2019-08-16 22:00:00 19.8 26 Oeste 45 Oeste 0 1006 0.1 80
2019-08-16 21:00:00 20.4 41 Oeste 57 Oeste 0 1005.5 -0.4 76
2019-08-16 20:00:00 22.2 34 Oeste 44 Oeste 0 1005.7 -0.1 69
2019-08-16 19:00:00 22.3 36 Oeste 55 Oeste 0 1005.9 -0.7 67
2019-08-16 18:00:00 21.4 55 Oeste 65 Oeste 0 1005.9 -0.5 71
2019-08-16 17:00:00 22.2 51 Oeste 60 Oeste 0 1005.8 -1.2 67
2019-08-16 16:00:00 22.6 48 Oeste 64 Oeste 0 1006.6 -0.5 62
2019-08-16 15:00:00 21.4 58 Oeste 65 Oeste 0 1006.4 -1.4 64
2019-08-16 14:00:00 21.5 44 Oeste 60 Noroeste 0 1007 -1.1 64
2019-08-16 13:00:00 20.7 45 Oeste 54 Noroeste 0 1007.1 -1 66
2019-08-16 12:00:00 22.9 21 Oeste 29 Noroeste 0 1007.8 -0.3 60
2019-08-16 11:00:00 20.9 22 Oeste 31 Oeste 0 1008.1 -0.5 68
2019-08-16 10:00:00 19.1 31 Oeste 37 Oeste 0 1008.1 -0.4 73
2019-08-16 09:00:00 17.3 27 Oeste 33 Oeste 0 1008.1 -0.4 79
2019-08-16 08:00:00 15.7 14 Oeste 17 Oeste 0 1008.6 0 85
2019-08-16 07:00:00 15.8 14 Oeste 18 Oeste 0 1008.5 -0.5 82
2019-08-16 06:00:00 15.6 10 Oeste 14 Oeste 0 1008.5 -1.2 81
2019-08-16 05:00:00 16.5 5 Oeste 15 Sudeste 0 1008.6 -1.4 76
2019-08-16 04:00:00 16.3 13 Sudeste 20 Sudeste 0 1009 -1.4 75
2019-08-16 03:00:00 16.5 3 Noroeste 13 Sur 0 1009.7 -0.9 78
2019-08-16 02:00:00 16.4 11 Sudeste 22 Sudeste 0 1010 -1.3 77
2019-08-16 01:00:00 17.1 15 Sudeste 29 Sudeste 0 1010.4 -0.7 73
2019-08-16 00:00:00 17.4 21 Sudeste 29 Sudeste 0 1010.6 -0.8 73
2019-08-15 23:00:00 17.8 19 Sudeste 33 Este 0 1011.3 -0.3 71
2019-08-15 22:00:00 18.2 24 Este 32 Sudeste 0 1011.1 -0.3 67
2019-08-15 21:00:00 18.8 17 Este 31 Este 0 1011.4 -0.3 63
2019-08-15 20:00:00 19.4 21 Este 35 Este 0 1011.6 -0.4 61
2019-08-15 19:00:00 20.1 20 Este 32 Este 0 1011.4 -1.2 60
2019-08-15 18:00:00 20.6 21 Este 28 Este 0 1011.7 -1.1 57
2019-08-15 17:00:00 21.2 20 Este 27 Este 0 1012 -0.8 55
2019-08-15 16:00:00 21.3 16 Este 22 Este 0 1012.6 -0.4 55
2019-08-15 15:00:00 21.5 14 Este 21 Este 0 1012.8 -0.2 55
2019-08-15 14:00:00 22.4 12 Este 18 Nordeste 0 1012.8 -0.1 55
2019-08-15 13:00:00 21 12 Este 19 Nordeste 0 1013 0.3 59
2019-08-15 12:00:00 20.9 9 Nordeste 18 Nordeste 0 1013 0.4 61
2019-08-15 11:00:00 20.1 5 Norte 9 Norte 0 1012.9 0.8 70
2019-08-15 10:00:00 19.6 4 Este 8 Nordeste 0 1012.7 0.8 68
2019-08-15 09:00:00 17.9 3 Oeste 6 Oeste 0 1012.6 0.5 75
2019-08-15 08:00:00 17.2 4 Sudoeste 10 Sudoeste 0 1012.1 0.1 74
2019-08-15 07:00:00 17.2 8 Sudoeste 16 Oeste 0 1011.9 -0.2 74
2019-08-15 06:00:00 17.1 10 Sudoeste 17 Oeste 0 1012.1 -0.2 75
2019-08-15 05:00:00 17.1 13 Oeste 18 Oeste 0 1012 -0.4 77
2019-08-15 04:00:00 17.1 12 Oeste 23 Sudoeste 0 1012.1 0 77
2019-08-15 03:00:00 17.3 17 Oeste 25 Oeste 0 1012.3 0.2 78
2019-08-15 02:00:00 17.5 17 Oeste 31 Noroeste 0 1012.4 0.4 77
2019-08-15 01:00:00 17.5 25 Noroeste 34 Noroeste 0 1012.1 0.7 78
2019-08-15 00:00:00 17.3 22 Oeste 34 Oeste 0 1012.1 1.2 83
2019-08-14 23:00:00 17 26 Oeste 42 Noroeste 0 1012 1.5 86
2019-08-14 22:00:00 17.4 24 Oeste 37 Noroeste 0 1011.4 1.2 93
2019-08-14 21:00:00 17.4 30 Noroeste 46 Noroeste 0.2 1010.9 0.8 94
2019-08-14 20:00:00 18.5 17 Noroeste 40 Oeste 0.2 1010.5 0.7 91
2019-08-14 19:00:00 19.5 39 Oeste 49 Oeste 0 1010.2 0.3 88
2019-08-14 18:00:00 20 29 Oeste 46 Oeste 0 1010.1 0.3 85
2019-08-14 17:00:00 20.4 42 Oeste 50 Oeste 0 1009.8 0.1 80
2019-08-14 16:00:00 21.6 37 Oeste 48 Oeste 0 1009.9 0.5 76
2019-08-14 15:00:00 21.9 42 Oeste 52 Oeste 0 1009.8 0.4 73
2019-08-14 14:00:00 23.3 42 Oeste 58 Oeste 0 1009.7 0.5 66
2019-08-14 13:00:00 23 44 Oeste 58 Oeste 0 1009.4 0.3 66
2019-08-14 12:00:00 20.1 41 Oeste 58 Sudoeste 0 1009.4 0.7 75
2019-08-14 11:00:00 19.1 42 Oeste 53 Oeste 0 1009.2 0.6 78
2019-08-14 10:00:00 19.4 38 Oeste 51 Oeste 0 1009.1 0.7 74
2019-08-14 09:00:00 18.6 36 Oeste 44 Oeste 0 1008.7 0.3 67
2019-08-14 08:00:00 18.4 31 Oeste 48 Oeste 0 1008.6 -0.7 61
2019-08-14 07:00:00 18.3 36 Oeste 44 Oeste 0 1008.4 -0.7 54
2019-08-14 06:00:00 18.3 35 Oeste 45 Sudoeste 0 1008.4 -1.8 51
2019-08-14 05:00:00 16.7 30 Oeste 34 Oeste 0 1009.3 -1.2 72
2019-08-14 04:00:00 16.8 27 Oeste 36 Oeste 0 1009.1 -1.3 71
2019-08-14 03:00:00 16.4 19 Oeste 24 Oeste 0 1010.2 -0.7 79
2019-08-14 02:00:00 16.8 14 Oeste 17 Oeste 0 1010.5 -1.2 79
2019-08-14 01:00:00 17.1 8 Sudoeste 17 Sur 0 1010.4 -0.8 76
2019-08-14 00:00:00 17.1 12 Sur 21 Sudeste 0 1010.9 -0.3 78
2019-08-13 23:00:00 17.9 12 Sudeste 22 Sudeste 0 1011.7 0.7 72
2019-08-13 22:00:00 17.9 15 Sudeste 20 Sudeste 0 1011.2 -0.1 72
2019-08-13 21:00:00 18.5 14 Sudeste 26 Sudeste 0 1011.2 -0.2 68
2019-08-13 20:00:00 19.7 16 Este 25 Este 0 1011 -0.5 65
2019-08-13 19:00:00 19.8 17 Este 29 Este 0 1011.3 -0.6 64
2019-08-13 18:00:00 20.3 20 Este 29 Este 0 1011.4 -0.8 61
2019-08-13 17:00:00 20.5 20 Este 34 Este 0 1011.5 -1 62
2019-08-13 16:00:00 20.5 23 Este 36 Este 0 1011.9 -0.8 61
2019-08-13 15:00:00 21 20 Este 29 Este 0 1012.2 -0.8 61
2019-08-13 14:00:00 21.3 16 Este 23 Este 0 1012.5 -0.7 58
2019-08-13 13:00:00 20.4 12 Nordeste 17 Nordeste 0 1012.7 -0.1 63
2019-08-13 12:00:00 19.1 6 Nordeste 12 Este 0 1013 0 66
2019-08-13 11:00:00 18.8 4 Oeste 8 Noroeste 0 1013.2 0.4 70
2019-08-13 10:00:00 16.7 7 Este 11 Oeste 0 1012.8 0.4 79
2019-08-13 09:00:00 15.4 5 Oeste 6 Oeste 0 1013 0.5 80
2019-08-13 08:00:00 14.7 7 Oeste 12 Noroeste 0 1012.8 0.3 80
2019-08-13 07:00:00 15.2 3 Oeste 5 Oeste 0 1012.4 -0.2 78
2019-08-13 06:00:00 15 4 Oeste 10 Oeste 0 1012.5 -0.8 79
2019-08-13 05:00:00 15.7 6 Nordeste 15 Este 0 1012.5 -1.6 74
2019-08-13 04:00:00 15.5 13 Este 17 Este 0 1012.6 -1.8 72
2019-08-13 03:00:00 15.7 12 Este 20 Este 0 1013.3 -1.3 73
2019-08-13 02:00:00 16.1 12 Este 25 Este 0 1014.1 -0.8 69
2019-08-13 01:00:00 16.6 18 Este 25 Este 0 1014.4 -0.2 68
2019-08-13 00:00:00 17 19 Este 22 Este 0 1014.6 0.3 66
2019-08-12 23:00:00 17 9 Norte 20 Nordeste 0 1014.9 1.1 66
2019-08-12 22:00:00 17.1 7 Nordeste 21 Nordeste 0 1014.6 1.1 65
2019-08-12 21:00:00 18.4 9 Norte 17 Norte 0 1014.3 0.9 55
2019-08-12 20:00:00 19.3 5 Norte 21 Norte 0 1013.8 0.1 55
2019-08-12 19:00:00 20 5 Noroeste 23 Noroeste 0 1013.5 -0.5 56
2019-08-12 18:00:00 19.4 5 Noroeste 20 Noroeste 0 1013.4 -0.9 56
2019-08-12 17:00:00 19.2 9 Noroeste 23 Oeste 0 1013.7 -0.6 58
2019-08-12 16:00:00 19.8 8 Noroeste 25 Oeste 0 1014 -0.3 56
2019-08-12 15:00:00 20.7 13 Oeste 26 Oeste 0 1014.3 0.2 53
2019-08-12 14:00:00 20 19 Noroeste 26 Noroeste 0 1014.3 0.7 57
2019-08-12 13:00:00 19.6 20 Noroeste 28 Oeste 0 1014.3 1 57
2019-08-12 12:00:00 18.7 19 Noroeste 29 Noroeste 0 1014.1 1.3 60
2019-08-12 11:00:00 17.8 22 Oeste 28 Noroeste 0 1013.6 1.5 67
2019-08-12 10:00:00 16.4 19 Oeste 28 Oeste 0 1013.3 1.5 77
2019-08-12 09:00:00 16 19 Oeste 30 Oeste 0 1012.8 1.5 79
2019-08-12 08:00:00 15.4 23 Oeste 30 Oeste 0 1012.1 0.9 81
2019-08-12 07:00:00 15.1 20 Oeste 37 Oeste 0 1011.8 0.4 81
2019-08-12 06:00:00 15.6 30 Oeste 40 Noroeste 0 1011.3 -0.1 77
2019-08-12 05:00:00 15.5 24 Oeste 38 Sudoeste 1.4 1011.2 -0.3 81
2019-08-12 04:00:00 15.9 21 Oeste 42 Oeste 0 1011.4 0.5 78
2019-08-12 03:00:00 16.3 34 Oeste 44 Noroeste 0 1011.4 -0.1 77
2019-08-12 02:00:00 16.1 32 Oeste 53 Noroeste 0.2 1011.5 0.1 78
2019-08-12 01:00:00 16.2 44 Oeste 59 Noroeste 0.2 1010.9 0.4 77
2019-08-12 00:00:00 16 25 Oeste 42 Sudoeste 0 1011.5 1.2 82
2019-08-11 23:00:00 16 28 Oeste 39 Oeste 0 1011.4 1.7 83
2019-08-11 22:00:00 16.4 32 Oeste 39 Oeste 1.8 1010.5 0.9 82
2019-08-11 21:00:00 16.8 24 Oeste 43 Oeste 0 1010.3 1.1 78
2019-08-11 20:00:00 17.6 33 Oeste 50 Oeste 0.6 1009.7 0.4 76
2019-08-11 19:00:00 18.9 38 Oeste 50 Oeste 0 1009.6 0.4 70
2019-08-11 18:00:00 19.6 41 Oeste 63 Oeste 0 1009.2 0.1 68
2019-08-11 17:00:00 19.3 38 Oeste 48 Oeste 0.4 1009.3 0 72
2019-08-11 16:00:00 16.5 49 Oeste 74 Noroeste 4.4 1009.2 0.2 75
2019-08-11 15:00:00 19.9 39 Oeste 45 Oeste 0 1009.1 0.2 61
2019-08-11 14:00:00 17.1 32 Oeste 46 Oeste 0 1009.3 1 74
2019-08-11 13:00:00 19.2 34 Oeste 42 Oeste 0 1009 0.6 62
2019-08-11 12:00:00 21 30 Oeste 38 Oeste 0 1008.9 0.9 59
2019-08-11 11:00:00 20.1 32 Oeste 42 Sudoeste 0 1008.3 0.4 64
2019-08-11 10:00:00 19.1 28 Oeste 36 Oeste 0 1008.4 0.6 69
2019-08-11 09:00:00 17.4 31 Oeste 38 Sudoeste 0 1008 0.1 76
2019-08-11 08:00:00 16.2 24 Oeste 30 Sudoeste 0 1007.9 -0.3 79
2019-08-11 07:00:00 16.1 23 Oeste 33 Oeste 0 1007.8 -0.8 79
2019-08-11 06:00:00 16.2 21 Oeste 27 Oeste 0 1007.9 -1.1 80
2019-08-11 05:00:00 16.2 23 Oeste 33 Oeste 0 1008.2 -1.4 80
2019-08-11 04:00:00 16.8 24 Oeste 30 Sudoeste 0 1008.6 -1.2 79
2019-08-11 03:00:00 16.9 17 Sudoeste 23 Sudoeste 0 1009 -1 77
2019-08-11 02:00:00 17 10 Sudoeste 16 Sudoeste 0 1009.6 -0.6 75
2019-08-11 01:00:00 17.2 12 Sudoeste 18 Sudoeste 0 1009.8 -0.1 74
2019-08-11 00:00:00 17.4 14 Oeste 24 Oeste 0 1010 0.5 76
2019-08-10 23:00:00 17.5 11 Oeste 34 Oeste 0 1010.2 0.5 74
2019-08-10 22:00:00 18.1 28 Oeste 44 Oeste 0 1009.9 0.4 75
2019-08-10 21:00:00 18.8 36 Oeste 45 Oeste 0 1009.5 0.4 72
2019-08-10 20:00:00 19.4 38 Oeste 49 Oeste 0 1009.7 0.9 69
2019-08-10 19:00:00 19.8 44 Oeste 51 Oeste 0 1009.5 0.4 64
2019-08-10 18:00:00 21.5 37 Oeste 55 Noroeste 0 1009.1 -0.3 64
2019-08-10 17:00:00 21.1 48 Oeste 55 Noroeste 0 1008.8 -0.4 63
2019-08-10 16:00:00 21.6 42 Oeste 54 Oeste 0 1009.1 -0.3 63
2019-08-10 15:00:00 21.2 45 Oeste 55 Noroeste 0 1009.4 -0.3 64
2019-08-10 14:00:00 21.5 45 Oeste 54 Oeste 0 1009.2 -0.3 63
2019-08-10 13:00:00 20.9 40 Oeste 47 Oeste 0 1009.4 0.2 62
2019-08-10 12:00:00 21.2 29 Oeste 39 Oeste 0 1009.7 0.9 62
2019-08-10 11:00:00 20.5 35 Oeste 43 Oeste 0 1009.5 1.1 67
2019-08-10 10:00:00 19.5 30 Oeste 43 Oeste 0 1009.2 1.7 69
2019-08-10 09:00:00 18.2 26 Oeste 43 Sudoeste 0 1008.8 1.5 74
2019-08-10 08:00:00 17.3 37 Oeste 51 Sudoeste 0 1008.4 1.3 77
2019-08-10 07:00:00 17.3 35 Oeste 46 Sudoeste 0 1007.5 0.7 78
2019-08-10 06:00:00 17.4 34 Oeste 48 Sudoeste 0 1007.3 0.9 76
2019-08-10 05:00:00 17.7 42 Oeste 54 Oeste 0 1007.1 0.6 77
2019-08-10 04:00:00 17.8 35 Oeste 56 Sudoeste 0 1006.8 0.6 76
2019-08-10 03:00:00 17.8 42 Oeste 50 Sudoeste 0 1006.4 0.4 75
2019-08-10 02:00:00 18 41 Oeste 56 Oeste 0 1006.5 0.8 74
2019-08-10 01:00:00 18.2 38 Oeste 52 Oeste 0 1006.2 1.4 74
2019-08-10 00:00:00 18.7 46 Oeste 58 Oeste 0 1006 2.1 72
2019-08-09 23:00:00 19 45 Oeste 67 Oeste 0 1005.7 2.6 70
2019-08-09 22:00:00 19.4 50 Oeste 63 Oeste 0 1004.8 3 70
2019-08-09 21:00:00 20.2 52 Oeste 74 Oeste 0 1003.9 2.5 63
2019-08-09 20:00:00 21.5 55 Oeste 75 Oeste 0 1003.1 2.4 62
2019-08-09 19:00:00 21.4 62 Oeste 79 Oeste 0 1001.8 1.9 60
2019-08-09 18:00:00 21.8 61 Oeste 87 Oeste 0 1001.4 2.1 60
2019-08-09 17:00:00 22.3 57 Oeste 106 Oeste 0 1000.7 1.7 60
2019-08-09 16:00:00 23 74 Oeste 90 Oeste 0 999.9 2.1 58
2019-08-09 15:00:00 21.5 64 Oeste 82 Oeste 0 999.3 1.8 64
2019-08-09 14:00:00 21.1 58 Oeste 89 Oeste 0 999 2.3 70
2019-08-09 13:00:00 24 66 Oeste 101 Oeste 0 997.8 0.9 54
2019-08-09 12:00:00 22.9 75 Oeste 99 Oeste 0 997.5 1.3 56
2019-08-09 11:00:00 22.1 71 Oeste 96 Oeste 0 996.7 1.2 62
2019-08-09 10:00:00 20.9 59 Oeste 85 Sudoeste 0 996.9 1.6 66
2019-08-09 09:00:00 20.5 58 Oeste 76 Oeste 0 996.2 0.7 68
2019-08-09 08:00:00 19.7 54 Oeste 84 Oeste 0 995.5 0 69
2019-08-09 07:00:00 19.4 60 Oeste 77 Oeste 0 995.3 -0.6 70
2019-08-09 06:00:00 19.1 44 Oeste 65 Oeste 0 995.5 -0.2 70
2019-08-09 05:00:00 19.2 52 Oeste 79 Sudoeste 0 995.5 -0.2 72
2019-08-09 04:00:00 19 43 Oeste 69 Sudoeste 0 995.9 0.8 73
2019-08-09 03:00:00 19 46 Oeste 69 Oeste 0 995.7 0 76
2019-08-09 02:00:00 19.4 42 Oeste 76 Oeste 0 995.7 0.4 79
2019-08-09 01:00:00 19.8 51 Oeste 66 Oeste 0 995.1 0.3 82
2019-08-09 00:00:00 20.1 39 Oeste 49 Oeste 0.2 995.7 2 91
2019-08-08 23:00:00 19.9 38 Oeste 48 Oeste 2.4 995.3 1.2 91
2019-08-08 22:00:00 21.4 20 Oeste 57 Sudoeste 1.2 994.8 -0.7 85
2019-08-08 21:00:00 23.6 41 Sudoeste 67 Sudoeste 0 993.7 -1.4 72
2019-08-08 20:00:00 24 31 Sudoeste 63 Sudoeste 0 994.1 -0.8 70
2019-08-08 19:00:00 22.8 39 Sudoeste 81 Oeste 0.6 995.5 0.2 79
2019-08-08 18:00:00 24.8 42 Oeste 76 Oeste 0.2 995.1 -0.5 67
2019-08-08 17:00:00 26.7 37 Sudoeste 66 Sudoeste 0 994.9 -1.5 60
2019-08-08 16:00:00 27.2 44 Oeste 69 Sudoeste 0 995.3 -1.5 60
2019-08-08 15:00:00 28.3 50 Oeste 78 Sudoeste 0 995.6 -1.2 55
2019-08-08 14:00:00 27.1 19 Sudoeste 63 Oeste 0 996.4 -0.4 58
2019-08-08 13:00:00 27 31 Oeste 66 Oeste 0 996.8 -0.8 57
2019-08-08 12:00:00 28 36 Oeste 55 Oeste 0 996.8 -0.7 53
2019-08-08 11:00:00 25.8 44 Oeste 65 Oeste 0 996.8 -0.5 58
2019-08-08 10:00:00 24.2 21 Sudoeste 36 Sudoeste 0 997.6 0.4 64
2019-08-08 09:00:00 22.8 21 Oeste 42 Sudoeste 0 997.5 0.1 69
2019-08-08 08:00:00 21.9 23 Sudoeste 40 Oeste 0 997.3 0.1 74
2019-08-08 07:00:00 21.7 27 Oeste 36 Oeste 0 997.2 -0.3 76
2019-08-08 06:00:00 21.8 20 Sudoeste 49 Oeste 0 997.4 -0.6 75
2019-08-08 05:00:00 21.6 35 Sudoeste 46 Sudoeste 0 997.2 -1.1 74
2019-08-08 04:00:00 22.1 37 Sudoeste 55 Sudoeste 0.2 997.5 -1.5 71
2019-08-08 03:00:00 22.3 28 Sudoeste 41 Sudoeste 0 998 -1.3 70
2019-08-08 02:00:00 22.1 26 Sudoeste 39 Oeste 0 998.3 -1.4 70
2019-08-08 01:00:00 21.5 16 Sur 34 Sur 0 999 -0.4 75
2019-08-08 00:00:00 21.5 13 Sudoeste 26 Sur 0 999.3 -0.1 75
2019-08-07 23:00:00 21.8 9 Sudoeste 31 Sudoeste 0 999.7 0.2 74
2019-08-07 22:00:00 21.9 15 Sudoeste 26 Sudoeste 0 999.4 -0.4 75
2019-08-07 21:00:00 20.6 11 Este 21 Este 0 999.4 -0.5 84
2019-08-07 20:00:00 21.1 11 Este 19 Sur 0 999.5 -0.6 81
2019-08-07 19:00:00 21.6 10 Oeste 21 Oeste 0 999.8 -0.5 80
2019-08-07 18:00:00 21.6 14 Oeste 28 Oeste 0 999.9 -0.8 82
2019-08-07 17:00:00 21.4 16 Sudoeste 31 Sudoeste 0 1000.1 -1.1 82
2019-08-07 16:00:00 19.9 20 Sudeste 27 Sudeste 0.2 1000.3 -0.6 89
2019-08-07 15:00:00 19.8 13 Este 22 Sur 0.2 1000.7 -0.3 83
2019-08-07 14:00:00 21.8 11 Sur 24 Este 0 1001.2 -0.2 70
2019-08-07 13:00:00 21.8 15 Este 21 Este 0 1000.9 -0.3 76
2019-08-07 12:00:00 21.8 10 Este 17 Este 0 1001 0.2 73
2019-08-07 11:00:00 21.3 8 Este 12 Este 0 1001.4 0.7 74
2019-08-07 10:00:00 20.1 6 Nordeste 10 Este 0 1001.2 0.5 76
2019-08-07 09:00:00 19.8 2 Norte 14 Sudoeste 0 1000.8 -0.3 80
2019-08-07 08:00:00 18.4 12 Sudoeste 22 Sur 0 1000.7 -0.6 83
2019-08-07 07:00:00 18.2 14 Sur 21 Sur 0 1000.7 -0.8 89
2019-08-07 06:00:00 18.6 9 Sur 12 Sur 0 1001.1 -0.2 90
2019-08-07 05:00:00 18.8 0 Calma 9 Oeste 0 1001.3 -0.5 89
2019-08-07 04:00:00 18.9 6 Oeste 15 Oeste 0 1001.5 -1 89
2019-08-07 03:00:00 18.8 4 Sur 19 Oeste 0 1001.3 -1.5 89
2019-08-07 02:00:00 18.9 13 Sudoeste 21 Sudoeste 0 1001.8 -1.2 91
2019-08-07 01:00:00 18.8 14 Sudoeste 20 Oeste 0 1002.5 -0.1 93
2019-08-07 00:00:00 18.9 15 Oeste 26 Oeste 0.2 1002.8 0.4 93
2019-08-06 23:00:00 19 20 Oeste 23 Oeste 0 1003 0.9 93
2019-08-06 22:00:00 19 18 Oeste 27 Oeste 0.2 1002.6 0.2 92
2019-08-06 21:00:00 19.2 17 Oeste 26 Noroeste 0 1002.4 -0.3 92
2019-08-06 20:00:00 19.3 11 Oeste 31 Noroeste 0 1002.1 -1 93
2019-08-06 19:00:00 18.9 15 Noroeste 32 Noroeste 0 1002.4 -0.6 92
2019-08-06 18:00:00 19.4 23 Oeste 49 Oeste 0 1002.7 -0.5 89
2019-08-06 17:00:00 20.1 45 Oeste 56 Oeste 0 1003.1 0.1 84
2019-08-06 16:00:00 20.9 45 Oeste 53 Oeste 0 1003 -0.3 80
2019-08-06 15:00:00 21.2 30 Oeste 45 Oeste 0 1003.2 -0.2 77
2019-08-06 14:00:00 23.6 39 Oeste 46 Oeste 0 1003 -0.2 67
2019-08-06 13:00:00 22.5 26 Oeste 32 Oeste 0 1003.3 -0.1 72
2019-08-06 12:00:00 22.3 23 Oeste 31 Oeste 0 1003.4 0.2 72
2019-08-06 11:00:00 21.6 22 Oeste 27 Oeste 0 1003.2 -0.1 74
2019-08-06 10:00:00 20.7 12 Oeste 23 Oeste 0 1003.4 0.4 78
2019-08-06 09:00:00 19.6 18 Oeste 22 Oeste 0 1003.2 0.1 83
2019-08-06 08:00:00 19.1 10 Oeste 17 Oeste 0 1003.3 -0.4 85
2019-08-06 07:00:00 18.7 8 Sur 15 Oeste 0 1003 -1 84
2019-08-06 06:00:00 18.8 10 Oeste 17 Oeste 0 1003.1 -1.2 86
2019-08-06 05:00:00 18.7 14 Oeste 25 Oeste 0 1003.7 -1.1 86
2019-08-06 04:00:00 19 21 Oeste 25 Oeste 0 1004 -1.2 85
2019-08-06 03:00:00 19.1 21 Oeste 23 Oeste 0 1004.3 -1.1 85
2019-08-06 02:00:00 19.2 17 Oeste 21 Oeste 0 1004.8 -0.7 86
2019-08-06 01:00:00 19.4 8 Oeste 14 Oeste 0 1005.2 0 87
2019-08-06 00:00:00 19.4 5 Oeste 14 Oeste 0 1005.4 0.4 86
2019-08-05 23:00:00 19.7 8 Oeste 14 Oeste 0 1005.5 0.8 85
2019-08-05 22:00:00 19.6 12 Oeste 23 Oeste 0 1005.2 0.5 85
2019-08-05 21:00:00 19.7 24 Oeste 36 Noroeste 0 1005 0.4 84
2019-08-05 20:00:00 20.2 31 Oeste 44 Oeste 0 1004.7 -0.2 81
2019-08-05 19:00:00 22.2 34 Oeste 46 Noroeste 0 1004.7 -0.4 74
2019-08-05 18:00:00 22.5 37 Oeste 46 Noroeste 0 1004.6 -0.7 71
2019-08-05 17:00:00 23.8 27 Oeste 36 Noroeste 0 1004.9 -0.8 64
2019-08-05 16:00:00 25 23 Oeste 32 Noroeste 0 1005.1 -0.9 58
2019-08-05 15:00:00 25 15 Oeste 24 Noroeste 0 1005.3 -0.8 55
2019-08-05 14:00:00 24 15 Oeste 22 Oeste 0 1005.7 -0.4 56
2019-08-05 13:00:00 21.7 6 Noroeste 13 Noroeste 0 1006 0 58
2019-08-05 12:00:00 21.2 5 Oeste 9 Oeste 0 1006.1 0 58
2019-08-05 11:00:00 20.6 9 Oeste 14 Oeste 0 1006.1 0.1 60
2019-08-05 10:00:00 19.1 14 Oeste 21 Oeste 0 1006 0 67
2019-08-05 09:00:00 18 7 Noroeste 19 Sudoeste 0 1006.1 0.1 68
2019-08-05 08:00:00 17.2 9 Oeste 21 Oeste 0 1006 -0.3 69
2019-08-05 07:00:00 17.1 19 Oeste 27 Sudoeste 0 1006 -0.6 72
2019-08-05 06:00:00 17.3 19 Sudoeste 29 Sudoeste 0 1006 -0.6 70
2019-08-05 05:00:00 16.6 18 Oeste 24 Oeste 0 1006.3 -0.6 75
2019-08-05 04:00:00 17.4 12 Sudoeste 26 Sudoeste 0 1006.6 -0.5 71
2019-08-05 03:00:00 17 18 Oeste 23 Oeste 0 1006.6 -0.7 75
2019-08-05 02:00:00 17.2 16 Oeste 21 Oeste 0 1006.9 -0.7 74
2019-08-05 01:00:00 17.4 8 Oeste 14 Oeste 0 1007.1 -0.1 76
2019-08-05 00:00:00 17.5 11 Oeste 13 Oeste 0 1007.3 0.4 73
2019-08-04 23:00:00 18 5 Oeste 12 Oeste 0 1007.6 0.5 75
2019-08-04 22:00:00 18.5 10 Oeste 17 Oeste 0 1007.2 0.6 75
2019-08-04 21:00:00 20.8 13 Oeste 23 Oeste 0 1006.9 0.4 69
2019-08-04 20:00:00 20.5 12 Oeste 23 Oeste 0 1007.1 0.6 71
2019-08-04 19:00:00 23.5 18 Oeste 23 Noroeste 0 1006.6 0 64
2019-08-04 18:00:00 24.2 16 Oeste 24 Noroeste 0 1006.5 -0.2 63
2019-08-04 17:00:00 22.3 16 Noroeste 22 Noroeste 0 1006.5 0 65
2019-08-04 16:00:00 22.1 15 Noroeste 22 Oeste 0 1006.6 -0.1 69
2019-08-04 15:00:00 22.1 11 Noroeste 23 Noroeste 0 1006.7 0.2 70
2019-08-04 14:00:00 21 11 Noroeste 18 Oeste 0 1006.5 0 74
2019-08-04 13:00:00 21.5 8 Noroeste 19 Oeste 0 1006.7 0.3 73
2019-08-04 12:00:00 21 2 Oeste 14 Norte 0 1006.5 0.5 78
2019-08-04 11:00:00 19.1 11 Norte 24 Norte 0 1006.5 0.7 86
2019-08-04 10:00:00 19.1 3 Noroeste 13 Sudoeste 0 1006.4 0.8 87
2019-08-04 09:00:00 18.2 13 Oeste 21 Oeste 0 1006 0.4 88
2019-08-04 08:00:00 18 13 Oeste 17 Oeste 0 1005.8 -0.2 86
2019-08-04 07:00:00 18.2 10 Sudoeste 14 Oeste 0 1005.6 -0.3 88
2019-08-04 06:00:00 18 11 Oeste 17 Oeste 0 1005.6 -0.4 90
2019-08-04 05:00:00 18 13 Oeste 17 Oeste 0 1006 -0.2 91
2019-08-04 04:00:00 17.8 15 Oeste 22 Oeste 0 1005.9 -0.3 90
2019-08-04 03:00:00 18.6 6 Oeste 10 Oeste 0 1006 -0.2 88
2019-08-04 02:00:00 18.7 8 Oeste 13 Oeste 0 1006.2 -0.2 88
2019-08-04 01:00:00 18.7 10 Oeste 13 Oeste 0 1006.2 0.2 87
2019-08-04 00:00:00 19.3 6 Sudoeste 9 Sudoeste 0 1006.2 0.4 85
2019-08-03 23:00:00 19.6 6 Oeste 9 Oeste 0 1006.4 0.7 82
2019-08-03 22:00:00 19.7 6 Oeste 10 Oeste 0 1006 0.4 81
2019-08-03 21:00:00 20.8 6 Oeste 12 Oeste 0 1005.8 -0.2 75
2019-08-03 20:00:00 23.2 6 Oeste 12 Oeste 0 1005.7 -0.3 69
2019-08-03 19:00:00 23 6 Oeste 12 Oeste 0 1005.6 -0.5 71
2019-08-03 18:00:00 21.7 8 Noroeste 20 Oeste 0 1006 -0.1 74
2019-08-03 17:00:00 22.8 9 Oeste 23 Oeste 0 1006 0 70
2019-08-03 16:00:00 22 9 Oeste 22 Oeste 0 1006.1 0.2 71
2019-08-03 15:00:00 23.3 14 Oeste 19 Oeste 0 1006.1 0.4 67
2019-08-03 14:00:00 22.6 13 Oeste 24 Oeste 0 1006 0.5 68
2019-08-03 13:00:00 22.3 12 Oeste 20 Noroeste 0 1005.9 0.3 73
2019-08-03 12:00:00 21.2 9 Oeste 12 Oeste 0 1005.7 0.3 74
2019-08-03 11:00:00 20.3 8 Oeste 13 Oeste 0 1005.5 0.1 77
2019-08-03 10:00:00 19.2 10 Oeste 13 Oeste 0 1005.6 0.5 84
2019-08-03 09:00:00 18.4 6 Sudoeste 18 Oeste 0 1005.4 0.2 88
2019-08-03 08:00:00 17.6 12 Oeste 16 Oeste 0 1005.4 -0.2 88
2019-08-03 07:00:00 18.1 8 Sudeste 14 Sudeste 0 1005.1 -0.5 88
2019-08-03 06:00:00 18.4 5 Sudeste 8 Sudeste 0 1005.2 -0.6 89
2019-08-03 05:00:00 19 6 Sudeste 15 Sudeste 0 1005.6 -0.4 90
2019-08-03 04:00:00 19.1 10 Sudeste 22 Este 0 1005.6 -0.8 91
2019-08-03 03:00:00 19.2 16 Sudeste 28 Este 0 1005.8 -0.9 91
2019-08-03 02:00:00 19 18 Sudeste 28 Este 0 1006 -1 90
2019-08-03 01:00:00 18.9 21 Sudeste 34 Sudeste 0 1006.4 -0.4 89
2019-08-03 00:00:00 19 27 Sudeste 37 Sudeste 0 1006.7 0.2 89
2019-08-02 23:00:00 19.2 29 Sudeste 35 Sudeste 0 1007 0.6 88
2019-08-02 22:00:00 19.3 26 Sudeste 37 Sudeste 0 1006.8 0.3 86
2019-08-02 21:00:00 19.9 27 Sudeste 36 Este 0 1006.5 -0.2 82
2019-08-02 20:00:00 20.4 28 Este 41 Sudeste 0 1006.4 -0.6 80
2019-08-02 19:00:00 21.1 27 Este 45 Este 0 1006.5 -0.8 76
2019-08-02 18:00:00 21.6 27 Este 41 Este 0 1006.7 -0.8 76
2019-08-02 17:00:00 21.9 27 Este 41 Este 0 1007 -0.7 73
2019-08-02 16:00:00 22.3 24 Este 38 Este 0 1007.3 -0.6 72
2019-08-02 15:00:00 22.2 25 Este 39 Este 0 1007.5 -0.4 71
2019-08-02 14:00:00 22.1 23 Este 36 Este 0 1007.7 -0.2 70
2019-08-02 13:00:00 22 21 Este 32 Este 0 1007.9 0.2 71
2019-08-02 12:00:00 21.1 20 Este 33 Este 0 1007.9 0.8 80
2019-08-02 11:00:00 19.2 18 Este 43 Este 0 1007.9 1 84
2019-08-02 10:00:00 18.9 29 Este 44 Este 0 1007.7 0.9 83
2019-08-02 09:00:00 19 27 Este 39 Este 0 1007.1 0.5 85
2019-08-02 08:00:00 18.5 22 Este 37 Este 0 1006.9 -0.1 88
2019-08-02 07:00:00 18.3 27 Este 38 Este 0 1006.8 0 88
2019-08-02 06:00:00 18.3 24 Este 39 Este 0 1006.6 -0.5 89
2019-08-02 05:00:00 18.4 23 Este 37 Este 0 1007 -0.5 90
2019-08-02 04:00:00 18.4 24 Este 35 Este 0 1006.8 -0.8 89
2019-08-02 03:00:00 18.5 24 Este 43 Este 0 1007.1 -1 87
2019-08-02 02:00:00 18.7 25 Este 44 Este 0 1007.5 -0.4 85
2019-08-02 01:00:00 18.9 34 Este 46 Este 0 1007.6 0.1 84
2019-08-02 00:00:00 19.1 30 Este 40 Este 0 1008.1 0.7 83
2019-08-01 23:00:00 19 35 Este 46 Este 0 1007.9 1 82
2019-08-01 22:00:00 18.9 30 Este 41 Este 0 1007.5 0.8 81
2019-08-01 21:00:00 18.9 29 Este 36 Nordeste 0 1007.4 0.6 79
2019-08-01 20:00:00 19.3 30 Este 36 Este 0 1006.9 0.4 75
2019-08-01 19:00:00 19.6 26 Nordeste 34 Nordeste 0 1006.7 0 74
2019-08-01 18:00:00 20.1 23 Este 32 Este 0 1006.8 0.5 72
2019-08-01 17:00:00 21.2 18 Este 35 Este 0 1006.5 0 69
2019-08-01 16:00:00 20.4 22 Este 44 Este 0 1006.7 0.3 69
2019-08-01 15:00:00 20 30 Este 43 Este 0 1006.3 0 70
2019-08-01 14:00:00 19.6 28 Este 50 Este 0 1006.5 0.7 76
2019-08-01 13:00:00 20 36 Este 50 Este 0 1006.4 0.7 70
2019-08-01 12:00:00 19.7 36 Este 51 Este 0 1006.3 1 72
2019-08-01 11:00:00 20 38 Este 50 Este 0 1005.8 0.7 70
2019-08-01 10:00:00 18.8 35 Este 51 Nordeste 0 1005.7 0.6 76
2019-08-01 09:00:00 18.4 38 Este 57 Nordeste 0 1005.3 0.1 75
2019-08-01 08:00:00 18.2 39 Este 53 Este 0 1005.1 -0.4 77
2019-08-01 07:00:00 17.9 38 Este 48 Este 0 1005.1 -0.2 77
2019-08-01 06:00:00 18 35 Este 53 Este 0 1005.2 -0.9 76
2019-08-01 05:00:00 18 36 Este 54 Nordeste 0 1005.5 -1.2 76
2019-08-01 04:00:00 17.9 44 Este 58 Este 0 1005.3 -1.7 76
2019-08-01 03:00:00 17.9 41 Este 51 Nordeste 0 1006.1 -1.1 75
2019-08-01 02:00:00 18 39 Este 50 Nordeste 0 1006.7 -0.6 75
2019-08-01 01:00:00 18.1 36 Este 49 Este 0 1007 -0.3 75
2019-08-01 00:00:00 18 38 Este 51 Este 0 1007.2 -0.2 73
2019-07-31 23:00:00 18.1 37 Este 50 Este 0 1007.3 0.1 73
2019-07-31 22:00:00 18 34 Este 46 Este 0 1007.3 -0.1 73
2019-07-31 21:00:00 18.6 29 Este 44 Este 0 1007.4 -0.2 71
2019-07-31 20:00:00 18.8 26 Este 42 Este 0 1007.2 -1 68
2019-07-31 19:00:00 19.2 26 Este 35 Este 0 1007.4 -0.9 63
2019-07-31 18:00:00 19.6 22 Este 39 Este 0 1007.6 -0.9 62
2019-07-31 17:00:00 20.3 19 Este 36 Este 0 1008.2 -0.6 61
2019-07-31 16:00:00 20.4 24 Este 33 Este 0 1008.3 -0.8 62
2019-07-31 15:00:00 20.6 24 Este 32 Este 0 1008.5 -1.1 60
2019-07-31 14:00:00 21.5 19 Este 31 Este 0 1008.8 -0.7 55
2019-07-31 13:00:00 20.9 16 Este 27 Este 0 1009.1 -0.4 63
2019-07-31 12:00:00 20.9 18 Este 24 Este 0 1009.6 0.1 63
2019-07-31 11:00:00 19.5 15 Este 24 Sudeste 0 1009.5 0.1 66
2019-07-31 10:00:00 18.2 17 Sudeste 22 Este 0 1009.5 0 68
2019-07-31 09:00:00 17.1 9 Sur 17 Sudeste 0 1009.5 -0.1 68
2019-07-31 08:00:00 15.5 13 Sudeste 15 Sudeste 0 1009.4 -0.3 71
2019-07-31 07:00:00 15.6 4 Nordeste 10 Sudeste 0 1009.5 -0.4 76
2019-07-31 06:00:00 14.9 7 Sur 9 Sur 0 1009.6 -0.8 73
2019-07-31 05:00:00 15.3 7 Sudeste 10 Sur 0 1009.7 -1.1 72
2019-07-31 04:00:00 15.4 4 Oeste 10 Sur 0 1009.9 -1.2 73
2019-07-31 03:00:00 15.4 8 Sur 9 Sur 0 1010.4 -0.8 70
2019-07-31 02:00:00 15.8 3 Sur 12 Sur 0 1010.8 -0.6 69
2019-07-31 01:00:00 15.6 8 Sur 11 Sur 0 1011.1 0 70
2019-07-31 00:00:00 15.7 9 Sur 12 Sur 0 1011.2 0.4 71
2019-07-30 23:00:00 16.7 11 Oeste 22 Noroeste 0 1011.4 0.9 65
2019-07-30 22:00:00 17.3 12 Noroeste 26 Noroeste 0 1011.1 0.5 64
2019-07-30 21:00:00 18.9 13 Noroeste 36 Noroeste 0 1010.8 -0.1 60
2019-07-30 20:00:00 19.5 23 Noroeste 36 Noroeste 0 1010.5 -0.7 57
2019-07-30 19:00:00 19.8 22 Noroeste 34 Noroeste 0 1010.6 -0.6 57
2019-07-30 18:00:00 20 23 Noroeste 38 Oeste 0 1010.9 -0.3 57
2019-07-30 17:00:00 19.6 28 Noroeste 39 Noroeste 0 1011.2 0 53
2019-07-30 16:00:00 20.9 30 Oeste 40 Oeste 0 1011.2 0 50
2019-07-30 15:00:00 21 34 Oeste 44 Noroeste 0 1011.2 0.2 51
2019-07-30 14:00:00 21 36 Oeste 46 Noroeste 0 1011.2 0.6 54
2019-07-30 13:00:00 21.1 31 Oeste 41 Oeste 0 1011.2 0.8 52
2019-07-30 12:00:00 19.4 35 Oeste 45 Noroeste 0 1011 1.3 58
2019-07-30 11:00:00 18.3 31 Oeste 40 Oeste 0 1010.6 1.4 65
2019-07-30 10:00:00 18.2 33 Oeste 48 Noroeste 0 1010.4 1.3 61
2019-07-30 09:00:00 17.8 39 Oeste 49 Oeste 0 1009.7 1.2 63
2019-07-30 08:00:00 17 40 Oeste 50 Oeste 0 1009.2 0.7 67
2019-07-30 07:00:00 16.1 25 Oeste 50 Noroeste 0 1009.1 0.8 72
2019-07-30 06:00:00 16.3 35 Oeste 61 Oeste 0 1008.5 0.1 66
2019-07-30 05:00:00 16.3 35 Oeste 65 Noroeste 0 1008.5 0.5 76
2019-07-30 04:00:00 16.7 44 Oeste 59 Oeste 0 1008.3 1.2 71
2019-07-30 03:00:00 16.4 33 Oeste 60 Oeste 0 1008.4 1.3 73
2019-07-30 02:00:00 16.9 45 Oeste 69 Oeste 0 1008 1.5 71
2019-07-30 01:00:00 17.2 55 Oeste 68 Oeste 0 1007.1 1.4 71
2019-07-30 00:00:00 17 50 Oeste 61 Oeste 0.2 1007.1 1.9 74
2019-07-29 23:00:00 17.1 58 Oeste 75 Oeste 0 1006.5 1.7 74
2019-07-29 22:00:00 17.4 54 Oeste 65 Oeste 0 1005.7 1.5 71
2019-07-29 21:00:00 17.3 54 Oeste 73 Oeste 0.2 1005.2 1.4 72
2019-07-29 20:00:00 18.9 54 Oeste 75 Oeste 0 1004.8 1.5 63
2019-07-29 19:00:00 19.7 62 Oeste 81 Oeste 0 1004.2 1.7 60
2019-07-29 18:00:00 20.1 63 Oeste 82 Oeste 0 1003.8 1.9 57
2019-07-29 17:00:00 20.1 64 Oeste 87 Oeste 0 1003.3 1.8 60
2019-07-29 16:00:00 20.3 67 Oeste 89 Oeste 0 1002.5 1.6 57
2019-07-29 15:00:00 20.3 68 Oeste 87 Oeste 0 1001.9 1.7 56
2019-07-29 14:00:00 20.5 67 Oeste 84 Oeste 0 1001.5 1.6 59
2019-07-29 13:00:00 20.6 67 Oeste 86 Oeste 0 1000.9 1.1 58
2019-07-29 12:00:00 19.5 67 Oeste 86 Oeste 0 1000.2 0.5 60
2019-07-29 11:00:00 19.1 62 Oeste 80 Oeste 0 999.9 0.7 64
2019-07-29 10:00:00 18 55 Oeste 73 Oeste 0 999.8 1.2 71
2019-07-29 09:00:00 17.6 49 Oeste 65 Oeste 0 999.7 1.7 75
2019-07-29 08:00:00 16.9 48 Oeste 64 Oeste 0 999.2 0.9 76
2019-07-29 07:00:00 16.9 44 Oeste 71 Oeste 0 998.6 0.9 77
2019-07-29 06:00:00 16.8 56 Oeste 71 Oeste 0 998 0.6 79
2019-07-29 05:00:00 17.6 48 Oeste 64 Oeste 0 998.3 0 78
2019-07-29 04:00:00 17.7 60 Oeste 76 Oeste 0 997.7 -1 77
2019-07-29 03:00:00 17.4 56 Oeste 63 Oeste 0 997.4 -1.6 78
2019-07-29 02:00:00 16.5 39 Oeste 64 Oeste 0 998.3 -1.1 75
2019-07-29 01:00:00 18 30 Oeste 35 Oeste 0 998.7 -0.7 61
2019-07-29 00:00:00 17.7 16 Sur 27 Sudoeste 0 999 -0.3 63
2019-07-28 23:00:00 17.6 3 Sudeste 19 Noroeste 0 999.4 0.3 72
2019-07-28 22:00:00 18.9 11 Noroeste 22 Oeste 0 999.4 0.3 67
2019-07-28 21:00:00 20.3 5 Sudeste 19 Este 0 999.3 -0.3 69
2019-07-28 20:00:00 20.1 15 Sudeste 30 Este 0 999.1 -0.9 70
2019-07-28 19:00:00 20.1 22 Sudeste 32 Sudeste 0 999.1 -1.6 69
2019-07-28 18:00:00 20.7 22 Sudeste 37 Sudeste 0 999.6 -1.7 67
2019-07-28 17:00:00 20.8 26 Sudeste 32 Sudeste 0 1000 -1.9 65
2019-07-28 16:00:00 21.9 19 Este 31 Este 0 1000.7 -1.8 63
2019-07-28 15:00:00 21.7 19 Este 31 Este 0 1001.3 -1.6 65
2019-07-28 14:00:00 21.6 19 Este 31 Este 0 1001.9 -1.5 63
2019-07-28 13:00:00 21.1 20 Este 26 Este 0 1002.5 -1 64
2019-07-28 12:00:00 20 14 Este 21 Este 0 1002.9 -0.6 65
2019-07-28 11:00:00 19.3 7 Nordeste 12 Nordeste 0 1003.4 -0.3 75
2019-07-28 10:00:00 19 5 Este 10 Este 0 1003.5 -0.1 74
2019-07-28 09:00:00 18 4 Este 9 Sudeste 0 1003.5 -0.2 77
2019-07-28 08:00:00 16.3 5 Sur 11 Sudeste 0 1003.7 0 81
2019-07-28 07:00:00 15.7 5 Sudeste 9 Sudeste 0 1003.6 -1 81
2019-07-28 06:00:00 15.9 4 Oeste 13 Sudeste 0 1003.7 -1 81
2019-07-28 05:00:00 15.7 11 Sudeste 14 Sudeste 0 1003.7 -1.3 82
2019-07-28 04:00:00 16 7 Oeste 9 Oeste 0 1004.6 -0.6 81
2019-07-28 03:00:00 16.5 7 Sudeste 14 Sudeste 0 1004.7 -0.4 79
2019-07-28 02:00:00 16.8 10 Este 17 Este 0 1005 -0.1 77
2019-07-28 01:00:00 16.9 9 Este 17 Este 0 1005.2 0.6 76
2019-07-28 00:00:00 17.3 12 Este 17 Este 0 1005.1 0.7 75
2019-07-27 23:00:00 17.6 3 Este 20 Nordeste 0 1005.1 0.8 73
2019-07-26 12:00:00 20.4 36 Oeste 41 Oeste 0 1005.9 0.4 65
2019-07-26 11:00:00 21.3 19 Oeste 33 Oeste 0 1006.1 0.7 72
2019-07-26 10:00:00 18 26 Oeste 35 Oeste 0 1005.9 0.8 81
2019-07-26 09:00:00 17.6 24 Oeste 33 Oeste 0 1005.5 0.6 81
2019-07-26 08:00:00 17.3 20 Oeste 30 Oeste 0 1005.4 0.6 83
2019-07-26 07:00:00 16.9 23 Oeste 36 Oeste 0 1005.1 0.1 85
2019-07-26 06:00:00 17 27 Oeste 37 Oeste 0 1004.9 -0.2 84
2019-07-26 05:00:00 17 30 Oeste 37 Oeste 0 1004.8 -0.6 86
2019-07-26 04:00:00 17.3 29 Oeste 37 Sudoeste 0.2 1005 -0.5 84
2019-07-26 03:00:00 17.6 25 Oeste 31 Sudoeste 0 1005.1 -0.2 82
2019-07-26 02:00:00 17.4 22 Oeste 29 Oeste 0 1005.4 0.3 82
2019-07-26 01:00:00 17.7 27 Oeste 35 Oeste 0 1005.5 1.3 82
2019-07-26 00:00:00 17.7 30 Oeste 35 Oeste 0 1005.3 1.5 80
2019-07-25 23:00:00 17.8 24 Oeste 39 Oeste 0 1005.1 1.9 80
2019-07-25 22:00:00 18.4 36 Oeste 48 Oeste 0 1004.2 1.4 77
2019-07-25 21:00:00 19.7 30 Oeste 46 Oeste 0 1003.8 1.2 71
2019-07-25 20:00:00 21.1 31 Oeste 38 Oeste 0 1003.2 0.5 65
2019-07-25 19:00:00 20.5 35 Oeste 53 Oeste 0 1002.8 0.2 67
2019-07-25 18:00:00 21.1 32 Oeste 48 Oeste 0 1002.6 0.1 70
2019-07-25 17:00:00 20.5 33 Oeste 38 Oeste 0 1002.7 0.4 73
2019-07-25 16:00:00 19.7 34 Oeste 64 Oeste 0 1002.6 0.8 78
2019-07-25 15:00:00 19.7 31 Oeste 45 Oeste 0 1002.5 1.6 79
2019-07-25 14:00:00 18.9 31 Oeste 42 Oeste 0 1002.3 2.1 83
2019-07-25 13:00:00 18.4 41 Oeste 58 Oeste 0 1001.8 1.6 88
2019-07-25 12:00:00 18.7 45 Oeste 54 Oeste 0 1000.9 1.2 83
2019-07-25 11:00:00 20.4 41 Oeste 60 Noroeste 0 1000.2 0.5 75
2019-07-25 10:00:00 23.1 22 Oeste 43 Oeste 0 1000.2 0.6 65
2019-07-25 09:00:00 22 30 Sudoeste 51 Sudoeste 0 999.7 0.1 66
2019-07-25 08:00:00 21.3 22 Sudoeste 40 Sudoeste 0 999.7 -0.2 70
2019-07-25 07:00:00 21.1 19 Sudoeste 37 Oeste 0 999.6 -0.3 70
2019-07-25 06:00:00 20.9 24 Sudoeste 44 Sudoeste 0 999.6 -0.3 69
2019-07-25 05:00:00 18.8 16 Oeste 21 Oeste 0 999.9 -0.5 83
2019-07-25 04:00:00 18.8 15 Oeste 24 Oeste 0 999.9 -1.1 80
2019-07-25 03:00:00 19.3 9 Sur 13 Sur 0 999.9 -1.4 82
2019-07-25 02:00:00 19.5 5 Este 10 Este 0 1000.4 -1 83
2019-07-25 01:00:00 19.7 0 Calma 11 Sudoeste 0 1001 -0.4 83
2019-07-25 00:00:00 19.8 6 Sur 28 Sudeste 0 1001.3 -0.2 84
2019-07-24 23:00:00 19.5 19 Sudeste 24 Sudeste 0 1001.4 -0.2 86
2019-07-24 22:00:00 20.1 11 Sudeste 15 Sudeste 0 1001.4 -0.2 80
2019-07-24 21:00:00 21.3 8 Sudeste 14 Este 0 1001.5 0.1 77
2019-07-24 20:00:00 22.1 6 Este 14 Noroeste 0 1001.6 -0.2 76
2019-07-24 19:00:00 23.7 5 Noroeste 18 Norte 0 1001.6 -0.8 70
2019-07-24 18:00:00 22.6 14 Este 18 Este 0 1001.4 -1.2 75
2019-07-24 17:00:00 22.4 11 Este 16 Este 0 1001.8 -1 75
2019-07-24 16:00:00 21.7 8 Nordeste 25 Este 0 1002.4 -0.8 77
2019-07-24 15:00:00 22.9 12 Este 26 Sudeste 0 1002.6 -0.9 72
2019-07-24 14:00:00 22.2 18 Este 27 Este 0 1002.8 -1.1 74
2019-07-24 13:00:00 22 16 Este 23 Este 0 1003.2 -0.7 77
2019-07-24 12:00:00 22.1 14 Este 23 Este 0 1003.5 -0.5 70
2019-07-24 11:00:00 20.8 19 Sudeste 25 Este 0 1003.9 -0.2 70
2019-07-24 10:00:00 20.9 18 Este 23 Este 0 1003.9 0.1 68
2019-07-24 09:00:00 19.7 11 Sudeste 19 Sudeste 0 1004 0.1 72
2019-07-24 08:00:00 17.9 4 Sur 17 Oeste 0 1004.1 0.1 78
2019-07-24 07:00:00 17.5 8 Oeste 15 Oeste 0 1003.8 -0.9 79
2019-07-24 06:00:00 16.3 9 Oeste 15 Oeste 0 1003.9 -1.4 84
2019-07-24 05:00:00 17.2 8 Oeste 10 Oeste 0 1004 -2.2 80
2019-07-24 04:00:00 17.4 5 Sudoeste 14 Sur 0 1004.7 -1.4 81
2019-07-24 03:00:00 17.5 4 Sur 8 Sudeste 0 1005.3 -0.9 88
2019-07-24 02:00:00 18.4 4 Sudoeste 18 Sur 0 1006.2 -0.2 89
2019-07-24 01:00:00 18.6 12 Sur 17 Sur 0 1006.1 0 87
2019-07-24 00:00:00 18.8 10 Sur 13 Sur 0 1006.2 1.4 85
2019-07-23 23:00:00 18.9 4 Sudoeste 16 Noroeste 0 1006.4 1.9 83
2019-07-23 22:00:00 19.1 4 Sur 36 Noroeste 0 1006.1 1.9 79
2019-07-23 21:00:00 20.1 29 Oeste 39 Oeste 0 1004.8 0.7 76
2019-07-23 20:00:00 20.6 21 Oeste 57 Oeste 0 1004.5 0.2 77
2019-07-23 19:00:00 20 52 Oeste 60 Oeste 0 1004.2 0.1 80
2019-07-23 18:00:00 20.7 55 Oeste 68 Oeste 0 1004.1 -0.1 80
2019-07-23 17:00:00 20.8 62 Oeste 73 Oeste 0 1004.3 0.1 81
2019-07-23 16:00:00 21.3 58 Oeste 64 Oeste 0 1004.1 0.1 77
2019-07-23 15:00:00 21.4 54 Oeste 61 Oeste 0 1004.2 0.1 77
2019-07-23 14:00:00 21.3 23 Oeste 36 Oeste 0 1004.2 0.2 78
2019-07-23 13:00:00 20 14 Oeste 23 Oeste 0 1004 -0.1 88
2019-07-23 12:00:00 18.6 10 Sudoeste 26 Oeste 0 1004.1 0 94
2019-07-23 11:00:00 17.7 15 Oeste 20 Oeste 0 1004 0 95
2019-07-23 10:00:00 17.1 14 Oeste 17 Oeste 0 1004.1 0.2 95
2019-07-23 09:00:00 19.9 3 Oeste 12 Sur 0 1004.1 0.4 96
2019-07-23 08:00:00 19.6 4 Sudoeste 8 Sudoeste 0 1004 0.2 96
2019-07-23 07:00:00 19.5 6 Sudeste 18 Este 0 1003.9 -0.6 96
2019-07-23 06:00:00 19.6 12 Sudeste 33 Sudeste 0 1003.7 -1.3 96
2019-07-23 05:00:00 19.6 23 Sudeste 32 Sudeste 0 1003.8 -1.7 96
2019-07-23 04:00:00 19.5 21 Este 31 Este 0 1004.5 -1.7 96
2019-07-23 03:00:00 19.6 17 Este 34 Sudeste 0 1005 -1.9 96
2019-07-23 02:00:00 19.5 19 Este 29 Este 0 1005.5 -1.6 95
2019-07-23 01:00:00 19.5 23 Este 35 Este 0 1006.2 -1 95
2019-07-23 00:00:00 19.3 25 Este 39 Este 0 1006.9 -0.3 94
2019-07-22 23:00:00 19.6 25 Este 36 Sudeste 0 1007.1 0.1 92
2019-07-22 22:00:00 19.7 26 Este 41 Este 0 1007.2 -0.2 91
2019-07-22 21:00:00 19.8 22 Este 41 Este 0 1007.2 -0.6 90
2019-07-22 20:00:00 20 27 Este 43 Este 0 1007 -1.2 89
2019-07-22 19:00:00 20.5 27 Este 44 Este 0 1007.4 -1.1 87
2019-07-22 18:00:00 20.8 26 Este 40 Este 0 1007.8 -0.8 86
2019-07-22 17:00:00 21.5 22 Este 44 Este 0 1008.2 -0.7 82
2019-07-22 16:00:00 20.8 31 Este 49 Este 0 1008.5 -0.8 84
2019-07-22 15:00:00 21.6 32 Este 51 Este 0 1008.6 -0.9 80
2019-07-22 14:00:00 20.8 34 Este 49 Este 0 1008.9 -0.8 83
2019-07-22 13:00:00 21.1 29 Este 50 Este 0 1009.3 -0.6 83
2019-07-22 12:00:00 20.5 37 Este 53 Este 0 1009.5 -0.4 87
2019-07-22 11:00:00 20 39 Este 58 Este 0 1009.7 -0.2 90
2019-07-22 10:00:00 19.7 33 Este 50 Este 0 1009.9 0.1 92
2019-07-22 09:00:00 19.6 33 Este 46 Este 0 1009.9 -0.3 93
2019-07-22 08:00:00 19.4 33 Este 53 Este 0 1009.9 -0.4 94
2019-07-22 07:00:00 19.4 40 Este 51 Este 0 1009.8 -1.1 95
2019-07-22 06:00:00 19.3 31 Este 46 Este 0 1010.2 -1 94
2019-07-22 05:00:00 19.3 31 Este 46 Este 0 1010.3 -1.5 94
2019-07-22 04:00:00 19.5 30 Este 48 Este 0 1010.9 -1.1 93
2019-07-22 03:00:00 19.5 37 Este 45 Este 0 1011.2 -1.2 93
2019-07-22 02:00:00 19.4 36 Este 45 Este 0 1011.8 -0.7 92
2019-07-22 01:00:00 19.4 34 Este 42 Este 0 1012 -0.3 90
2019-07-22 00:00:00 19.6 28 Este 39 Este 0 1012.4 0.2 88
2019-07-21 23:00:00 19.6 27 Este 34 Nordeste 0 1012.5 0.5 88
2019-07-21 22:00:00 19.6 25 Este 33 Nordeste 0 1012.3 0.4 87
2019-07-21 21:00:00 19.7 22 Nordeste 33 Nordeste 0 1012.2 0 86
2019-07-21 20:00:00 20.1 23 Nordeste 31 Este 0 1012 -0.2 82
2019-07-21 19:00:00 20.8 21 Este 27 Este 0 1011.9 -0.4 81
2019-07-21 18:00:00 21.2 12 Este 28 Este 0 1012.2 -0.2 78
2019-07-21 17:00:00 21.1 20 Este 27 Nordeste 0 1012.2 -0.2 76
2019-07-21 16:00:00 21.3 16 Nordeste 26 Nordeste 0 1012.3 0.1 74
2019-07-21 15:00:00 21.2 11 Nordeste 24 Nordeste 0 1012.4 0.4 75
2019-07-21 14:00:00 20.5 13 Nordeste 22 Nordeste 0 1012.4 0.8 77
2019-07-21 13:00:00 21.3 15 Este 23 Este 0 1012.2 0.3 77
2019-07-21 12:00:00 20.4 9 Este 14 Este 0 1012 0.3 78
2019-07-21 11:00:00 20.3 9 Este 16 Este 0 1011.6 0.4 80
2019-07-21 10:00:00 19 3 Norte 8 Oeste 0 1011.9 1.2 87
2019-07-21 09:00:00 17.4 7 Oeste 9 Oeste 0 1011.7 1.1 88
2019-07-21 08:00:00 17.5 3 Este 6 Este 0 1011.2 0.6 89
2019-07-21 07:00:00 16.7 2 Sudoeste 6 Oeste 0 1010.7 0.1 88
2019-07-21 06:00:00 17 4 Oeste 6 Noroeste 0 1010.6 -0.1 87
2019-07-21 05:00:00 17.1 0 Calma 3 Este 0 1010.6 -0.2 86
2019-07-21 04:00:00 17.2 2 Oeste 4 Sudoeste 0 1010.6 -0.4 86
2019-07-21 03:00:00 17.5 0 Calma 3 Norte 0 1010.7 -0.3 85
2019-07-21 02:00:00 17.9 0 Calma 6 Oeste 0 1010.8 -0.1 84
2019-07-21 01:00:00 17.6 0 Calma 5 Sudeste 0 1011 0.7 83
2019-07-21 00:00:00 17.9 4 Sudeste 6 Sudeste 0 1011 1.1 82
2019-07-20 23:00:00 18.4 0 Calma 7 Sudoeste 0 1010.9 1.5 80
2019-07-20 22:00:00 19.6 5 Sudoeste 13 Oeste 0 1010.3 1.4 75
2019-07-20 21:00:00 20.5 12 Oeste 23 Oeste 0 1009.9 1.9 73
2019-07-20 20:00:00 21 21 Oeste 29 Noroeste 0 1009.4 1.8 71
2019-07-20 19:00:00 21.3 26 Oeste 44 Noroeste 0 1008.9 1.1 71
2019-07-20 18:00:00 20.7 37 Noroeste 53 Noroeste 0 1008 0.6 72
2019-07-20 17:00:00 20.7 37 Noroeste 46 Noroeste 0 1007.6 0.3 71
2019-07-20 16:00:00 20.9 32 Noroeste 43 Noroeste 0 1007.8 0.7 70
2019-07-20 15:00:00 20.5 38 Noroeste 46 Noroeste 0 1007.4 0.6 73
2019-07-20 14:00:00 21.5 30 Oeste 35 Noroeste 0 1007.3 1 76
2019-07-20 13:00:00 22.2 26 Oeste 30 Noroeste 0 1007.1 1.3 70
2019-07-20 12:00:00 22.4 19 Oeste 29 Oeste 0 1006.8 1.7 75
2019-07-20 11:00:00 20.5 21 Oeste 30 Oeste 0 1006.3 1.7 79
2019-07-20 10:00:00 20.1 26 Oeste 35 Oeste 0 1005.8 1.8 82
2019-07-20 09:00:00 19.4 31 Oeste 37 Oeste 0 1005.1 1.2 80
2019-07-20 08:00:00 19.1 31 Oeste 40 Oeste 0 1004.6 0.7 79
2019-07-20 07:00:00 19.4 32 Sudoeste 45 Sudoeste 0 1004 0 78
2019-07-20 06:00:00 19.2 32 Sudoeste 43 Oeste 0 1003.9 -0.3 79
2019-07-20 05:00:00 18.7 31 Oeste 41 Oeste 0 1003.9 -0.4 83
2019-07-20 04:00:00 18.2 35 Oeste 41 Oeste 0 1004 -0.5 87
2019-07-20 03:00:00 17.6 36 Oeste 44 Sudoeste 0 1004.2 -0.4 90
2019-07-20 02:00:00 17.1 22 Oeste 26 Oeste 0 1004.3 -0.1 91
2019-07-20 01:00:00 16.8 22 Oeste 32 Oeste 0 1004.5 0.4 89
2019-07-20 00:00:00 17.3 22 Oeste 30 Oeste 0 1004.6 0.7 87
2019-07-19 23:00:00 17.9 18 Oeste 23 Oeste 0 1004.4 0.2 83
2019-07-19 22:00:00 18.9 17 Oeste 23 Noroeste 0 1004.1 -0.1 79
2019-07-19 21:00:00 20.2 5 Sudoeste 20 Oeste 0 1003.9 -0.5 72
2019-07-19 20:00:00 22.3 17 Oeste 24 Oeste 0 1004.2 -0.5 68
2019-07-19 19:00:00 23.2 19 Oeste 22 Oeste 0 1004.2 -0.5 64
2019-07-19 18:00:00 24 14 Oeste 22 Oeste 0 1004.4 -0.5 64
2019-07-19 17:00:00 21.8 8 Nordeste 20 Este 0 1004.7 -0.6 69
2019-07-19 16:00:00 22.7 15 Este 23 Este 0 1004.7 -0.7 65
2019-07-19 15:00:00 22.7 14 Este 22 Este 0 1004.9 -0.7 68
2019-07-19 14:00:00 21.7 14 Nordeste 19 Nordeste 0 1005.3 -0.3 70
2019-07-19 13:00:00 21.4 13 Este 17 Este 0 1005.4 -0.5 70
2019-07-19 12:00:00 21 8 Nordeste 14 Nordeste 0 1005.6 -0.1 70
2019-07-19 11:00:00 21.2 9 Este 17 Este 0 1005.6 -0.2 68
2019-07-19 10:00:00 19.3 8 Sudeste 21 Sudeste 0 1005.9 -0.1 76
2019-07-19 09:00:00 18.5 10 Sudeste 15 Sudeste 0 1005.7 -0.3 78
2019-07-19 08:00:00 18.1 9 Sudeste 18 Este 0 1005.8 -0.6 79
2019-07-19 07:00:00 18 9 Sudeste 18 Sudeste 0 1006 -0.9 80
2019-07-19 06:00:00 18.2 8 Este 17 Sudeste 0 1006 -1.6 79
2019-07-19 05:00:00 18.1 9 Sudeste 14 Este 0 1006.4 -1.6 81
2019-07-19 04:00:00 18.4 6 Sudeste 8 Sudeste 0 1006.9 -1.4 82
2019-07-19 03:00:00 18.6 4 Este 6 Este 0 1007.6 -0.8 82
2019-07-19 02:00:00 18.7 4 Este 5 Este 0 1008 -0.4 82
2019-07-19 01:00:00 18.6 0 Calma 12 Este 0 1008.3 0.2 81
2019-07-19 00:00:00 18.4 4 Nordeste 10 Nordeste 0 1008.4 0.3 82